sensor_id;sensor_type;location;lat;lon;timestamp;P1;durP1;ratioP1;P2;durP2;ratioP2
22080;SDS011;11207;59.512;18.050;2023-05-10T00:00:20;11.43;;;5.80;;
22080;SDS011;11207;59.512;18.050;2023-05-10T00:02:47;12.13;;;6.50;;
22080;SDS011;11207;59.512;18.050;2023-05-10T00:05:13;9.93;;;6.43;;
22080;SDS011;11207;59.512;18.050;2023-05-10T00:07:38;11.10;;;6.30;;
22080;SDS011;11207;59.512;18.050;2023-05-10T00:10:04;10.30;;;6.43;;
22080;SDS011;11207;59.512;18.050;2023-05-10T00:12:30;8.60;;;5.93;;
22080;SDS011;11207;59.512;18.050;2023-05-10T00:14:56;15.20;;;6.37;;
22080;SDS011;11207;59.512;18.050;2023-05-10T00:17:21;10.33;;;5.97;;
22080;SDS011;11207;59.512;18.050;2023-05-10T00:19:47;10.50;;;6.73;;
22080;SDS011;11207;59.512;18.050;2023-05-10T00:22:13;10.63;;;6.33;;
22080;SDS011;11207;59.512;18.050;2023-05-10T00:24:38;12.07;;;6.63;;
22080;SDS011;11207;59.512;18.050;2023-05-10T00:27:04;10.87;;;6.97;;
22080;SDS011;11207;59.512;18.050;2023-05-10T00:29:30;13.63;;;7.53;;
22080;SDS011;11207;59.512;18.050;2023-05-10T00:31:56;14.67;;;6.93;;
22080;SDS011;11207;59.512;18.050;2023-05-10T00:34:22;11.93;;;6.80;;
22080;SDS011;11207;59.512;18.050;2023-05-10T00:36:48;10.27;;;6.70;;
22080;SDS011;11207;59.512;18.050;2023-05-10T00:39:13;9.67;;;6.10;;
22080;SDS011;11207;59.512;18.050;2023-05-10T00:41:39;12.07;;;6.90;;
22080;SDS011;11207;59.512;18.050;2023-05-10T00:44:04;15.77;;;6.53;;
22080;SDS011;11207;59.512;18.050;2023-05-10T00:46:31;9.43;;;5.97;;
22080;SDS011;11207;59.512;18.050;2023-05-10T00:48:57;11.83;;;6.80;;
22080;SDS011;11207;59.512;18.050;2023-05-10T00:51:23;9.57;;;6.17;;
22080;SDS011;11207;59.512;18.050;2023-05-10T00:53:49;13.03;;;6.00;;
22080;SDS011;11207;59.512;18.050;2023-05-10T00:56:16;13.47;;;6.23;;
22080;SDS011;11207;59.512;18.050;2023-05-10T00:58:42;9.33;;;6.07;;
22080;SDS011;11207;59.512;18.050;2023-05-10T01:01:08;10.97;;;6.47;;
22080;SDS011;11207;59.512;18.050;2023-05-10T01:03:34;8.77;;;6.10;;
22080;SDS011;11207;59.512;18.050;2023-05-10T01:06:00;9.53;;;5.83;;
22080;SDS011;11207;59.512;18.050;2023-05-10T01:08:26;9.33;;;6.37;;
22080;SDS011;11207;59.512;18.050;2023-05-10T01:10:53;12.33;;;6.40;;
22080;SDS011;11207;59.512;18.050;2023-05-10T01:13:41;9.87;;;6.13;;
22080;SDS011;11207;59.512;18.050;2023-05-10T01:16:07;10.63;;;6.67;;
22080;SDS011;11207;59.512;18.050;2023-05-10T01:18:33;9.00;;;6.23;;
22080;SDS011;11207;59.512;18.050;2023-05-10T01:32:24;9.03;;;6.93;;
22080;SDS011;11207;59.512;18.050;2023-05-10T01:35:19;8.83;;;5.87;;
22080;SDS011;11207;59.512;18.050;2023-05-10T01:38:04;8.77;;;6.30;;
22080;SDS011;11207;59.512;18.050;2023-05-10T01:40:54;8.53;;;6.07;;
22080;SDS011;11207;59.512;18.050;2023-05-10T01:43:37;8.47;;;6.20;;
22080;SDS011;11207;59.512;18.050;2023-05-10T01:46:17;11.67;;;6.67;;
22080;SDS011;11207;59.512;18.050;2023-05-10T01:48:52;11.00;;;7.10;;
22080;SDS011;11207;59.512;18.050;2023-05-10T01:51:24;10.17;;;6.30;;
22080;SDS011;11207;59.512;18.050;2023-05-10T01:53:56;12.77;;;7.17;;
22080;SDS011;11207;59.512;18.050;2023-05-10T01:56:25;12.13;;;7.07;;
22080;SDS011;11207;59.512;18.050;2023-05-10T01:58:52;8.00;;;5.80;;
22080;SDS011;11207;59.512;18.050;2023-05-10T02:01:20;10.13;;;6.53;;
22080;SDS011;11207;59.512;18.050;2023-05-10T02:03:46;7.87;;;6.47;;
22080;SDS011;11207;59.512;18.050;2023-05-10T02:06:15;10.97;;;6.90;;
22080;SDS011;11207;59.512;18.050;2023-05-10T02:08:43;7.43;;;5.83;;
22080;SDS011;11207;59.512;18.050;2023-05-10T02:11:12;8.70;;;6.53;;
22080;SDS011;11207;59.512;18.050;2023-05-10T02:13:39;10.43;;;6.20;;
22080;SDS011;11207;59.512;18.050;2023-05-10T02:16:07;9.80;;;6.40;;
22080;SDS011;11207;59.512;18.050;2023-05-10T02:18:34;8.83;;;6.17;;
22080;SDS011;11207;59.512;18.050;2023-05-10T02:21:01;10.07;;;6.30;;
22080;SDS011;11207;59.512;18.050;2023-05-10T02:23:28;10.13;;;6.20;;
22080;SDS011;11207;59.512;18.050;2023-05-10T02:25:55;9.40;;;6.30;;
22080;SDS011;11207;59.512;18.050;2023-05-10T02:28:23;7.23;;;6.40;;
22080;SDS011;11207;59.512;18.050;2023-05-10T02:30:49;10.30;;;6.70;;
22080;SDS011;11207;59.512;18.050;2023-05-10T02:33:17;9.83;;;6.50;;
22080;SDS011;11207;59.512;18.050;2023-05-10T02:35:44;9.50;;;6.20;;
22080;SDS011;11207;59.512;18.050;2023-05-10T02:38:11;7.87;;;6.43;;
22080;SDS011;11207;59.512;18.050;2023-05-10T02:40:38;12.23;;;7.03;;
22080;SDS011;11207;59.512;18.050;2023-05-10T02:43:07;7.90;;;6.37;;
22080;SDS011;11207;59.512;18.050;2023-05-10T02:45:37;11.97;;;6.10;;
22080;SDS011;11207;59.512;18.050;2023-05-10T02:48:04;7.80;;;6.13;;
22080;SDS011;11207;59.512;18.050;2023-05-10T02:50:30;7.33;;;5.87;;
22080;SDS011;11207;59.512;18.050;2023-05-10T02:53:03;7.73;;;5.97;;
22080;SDS011;11207;59.512;18.050;2023-05-10T02:55:38;12.60;;;7.07;;
22080;SDS011;11207;59.512;18.050;2023-05-10T02:58:05;8.93;;;6.57;;
22080;SDS011;11207;59.512;18.050;2023-05-10T03:00:31;9.27;;;6.80;;
22080;SDS011;11207;59.512;18.050;2023-05-10T03:02:57;9.77;;;7.57;;
22080;SDS011;11207;59.512;18.050;2023-05-10T03:05:23;9.00;;;6.13;;
22080;SDS011;11207;59.512;18.050;2023-05-10T03:07:49;9.93;;;6.97;;
22080;SDS011;11207;59.512;18.050;2023-05-10T03:10:16;13.83;;;7.00;;
22080;SDS011;11207;59.512;18.050;2023-05-10T03:12:56;9.27;;;7.00;;
22080;SDS011;11207;59.512;18.050;2023-05-10T03:15:55;11.30;;;7.60;;
22080;SDS011;11207;59.512;18.050;2023-05-10T03:18:33;12.73;;;6.60;;
22080;SDS011;11207;59.512;18.050;2023-05-10T03:21:20;11.90;;;7.60;;
22080;SDS011;11207;59.512;18.050;2023-05-10T03:23:51;9.83;;;6.73;;
22080;SDS011;11207;59.512;18.050;2023-05-10T03:26:32;11.40;;;7.40;;
22080;SDS011;11207;59.512;18.050;2023-05-10T03:28:58;9.70;;;7.17;;
22080;SDS011;11207;59.512;18.050;2023-05-10T03:31:25;10.90;;;7.30;;
22080;SDS011;11207;59.512;18.050;2023-05-10T03:33:51;12.17;;;7.47;;
22080;SDS011;11207;59.512;18.050;2023-05-10T03:36:18;8.73;;;7.00;;
22080;SDS011;11207;59.512;18.050;2023-05-10T03:38:43;9.17;;;7.13;;
22080;SDS011;11207;59.512;18.050;2023-05-10T03:41:09;11.07;;;7.13;;
22080;SDS011;11207;59.512;18.050;2023-05-10T03:43:35;11.83;;;6.83;;
22080;SDS011;11207;59.512;18.050;2023-05-10T03:46:02;11.63;;;7.07;;
22080;SDS011;11207;59.512;18.050;2023-05-10T03:48:29;9.57;;;6.90;;
22080;SDS011;11207;59.512;18.050;2023-05-10T03:50:55;9.53;;;6.97;;
22080;SDS011;11207;59.512;18.050;2023-05-10T03:53:21;9.27;;;6.53;;
22080;SDS011;11207;59.512;18.050;2023-05-10T03:55:47;12.90;;;6.70;;
22080;SDS011;11207;59.512;18.050;2023-05-10T03:58:13;7.70;;;6.03;;
22080;SDS011;11207;59.512;18.050;2023-05-10T04:00:38;9.30;;;6.50;;
22080;SDS011;11207;59.512;18.050;2023-05-10T04:03:08;11.53;;;6.77;;
22080;SDS011;11207;59.512;18.050;2023-05-10T04:05:35;9.50;;;6.53;;
22080;SDS011;11207;59.512;18.050;2023-05-10T04:08:01;9.20;;;6.23;;
22080;SDS011;11207;59.512;18.050;2023-05-10T04:10:26;11.13;;;6.87;;
22080;SDS011;11207;59.512;18.050;2023-05-10T04:12:52;12.43;;;6.73;;
22080;SDS011;11207;59.512;18.050;2023-05-10T04:15:18;7.93;;;6.37;;
22080;SDS011;11207;59.512;18.050;2023-05-10T04:17:43;9.20;;;6.67;;
22080;SDS011;11207;59.512;18.050;2023-05-10T04:20:09;11.53;;;6.80;;
22080;SDS011;11207;59.512;18.050;2023-05-10T04:22:35;8.67;;;6.53;;
22080;SDS011;11207;59.512;18.050;2023-05-10T04:25:01;8.53;;;6.03;;
22080;SDS011;11207;59.512;18.050;2023-05-10T04:27:29;9.20;;;6.23;;
22080;SDS011;11207;59.512;18.050;2023-05-10T04:29:55;13.33;;;6.53;;
22080;SDS011;11207;59.512;18.050;2023-05-10T04:32:20;13.10;;;6.27;;
22080;SDS011;11207;59.512;18.050;2023-05-10T04:34:46;10.30;;;6.33;;
22080;SDS011;11207;59.512;18.050;2023-05-10T04:37:12;7.77;;;5.80;;
22080;SDS011;11207;59.512;18.050;2023-05-10T04:39:37;13.67;;;6.00;;
22080;SDS011;11207;59.512;18.050;2023-05-10T04:42:04;9.63;;;5.80;;
22080;SDS011;11207;59.512;18.050;2023-05-10T04:44:30;8.07;;;5.73;;
22080;SDS011;11207;59.512;18.050;2023-05-10T04:46:56;16.90;;;6.10;;
22080;SDS011;11207;59.512;18.050;2023-05-10T04:49:22;10.80;;;6.00;;
22080;SDS011;11207;59.512;18.050;2023-05-10T04:51:48;7.70;;;5.43;;
22080;SDS011;11207;59.512;18.050;2023-05-10T04:54:13;7.90;;;5.50;;
22080;SDS011;11207;59.512;18.050;2023-05-10T04:56:39;9.10;;;5.90;;
22080;SDS011;11207;59.512;18.050;2023-05-10T04:59:05;9.87;;;5.63;;
22080;SDS011;11207;59.512;18.050;2023-05-10T05:01:31;10.80;;;5.33;;
22080;SDS011;11207;59.512;18.050;2023-05-10T05:03:57;10.83;;;6.20;;
22080;SDS011;11207;59.512;18.050;2023-05-10T05:06:23;8.80;;;5.33;;
22080;SDS011;11207;59.512;18.050;2023-05-10T05:08:50;10.53;;;5.60;;
22080;SDS011;11207;59.512;18.050;2023-05-10T05:11:16;11.03;;;4.90;;
22080;SDS011;11207;59.512;18.050;2023-05-10T05:13:42;10.13;;;5.47;;
22080;SDS011;11207;59.512;18.050;2023-05-10T05:16:08;6.77;;;5.17;;
22080;SDS011;11207;59.512;18.050;2023-05-10T05:18:33;8.57;;;5.13;;
22080;SDS011;11207;59.512;18.050;2023-05-10T05:20:59;11.27;;;5.50;;
22080;SDS011;11207;59.512;18.050;2023-05-10T05:23:25;7.57;;;5.30;;
22080;SDS011;11207;59.512;18.050;2023-05-10T05:25:54;9.43;;;5.03;;
22080;SDS011;11207;59.512;18.050;2023-05-10T05:28:20;10.00;;;5.17;;
22080;SDS011;11207;59.512;18.050;2023-05-10T05:30:46;7.70;;;5.20;;
22080;SDS011;11207;59.512;18.050;2023-05-10T05:33:13;9.27;;;4.77;;
22080;SDS011;11207;59.512;18.050;2023-05-10T05:35:40;10.77;;;5.30;;
22080;SDS011;11207;59.512;18.050;2023-05-10T05:38:06;10.87;;;5.83;;
22080;SDS011;11207;59.512;18.050;2023-05-10T05:40:31;9.30;;;5.20;;
22080;SDS011;11207;59.512;18.050;2023-05-10T05:42:57;10.87;;;5.70;;
22080;SDS011;11207;59.512;18.050;2023-05-10T05:45:23;8.17;;;4.67;;
22080;SDS011;11207;59.512;18.050;2023-05-10T05:47:48;8.57;;;5.57;;
22080;SDS011;11207;59.512;18.050;2023-05-10T05:50:14;9.33;;;5.20;;
22080;SDS011;11207;59.512;18.050;2023-05-10T05:52:39;9.63;;;5.37;;
22080;SDS011;11207;59.512;18.050;2023-05-10T05:55:05;6.97;;;4.90;;
22080;SDS011;11207;59.512;18.050;2023-05-10T05:57:31;5.87;;;4.43;;
22080;SDS011;11207;59.512;18.050;2023-05-10T05:59:56;7.27;;;4.50;;
22080;SDS011;11207;59.512;18.050;2023-05-10T06:02:22;14.83;;;4.73;;
22080;SDS011;11207;59.512;18.050;2023-05-10T06:04:48;8.00;;;4.20;;
22080;SDS011;11207;59.512;18.050;2023-05-10T06:07:13;9.60;;;4.70;;
22080;SDS011;11207;59.512;18.050;2023-05-10T06:09:39;13.50;;;5.00;;
22080;SDS011;11207;59.512;18.050;2023-05-10T06:12:05;7.37;;;4.33;;
22080;SDS011;11207;59.512;18.050;2023-05-10T06:14:30;10.73;;;4.80;;
22080;SDS011;11207;59.512;18.050;2023-05-10T06:16:56;7.63;;;4.60;;
22080;SDS011;11207;59.512;18.050;2023-05-10T06:19:21;7.87;;;4.63;;
22080;SDS011;11207;59.512;18.050;2023-05-10T06:21:47;8.27;;;4.97;;
22080;SDS011;11207;59.512;18.050;2023-05-10T06:24:13;12.80;;;4.90;;
22080;SDS011;11207;59.512;18.050;2023-05-10T06:26:38;8.77;;;4.50;;
22080;SDS011;11207;59.512;18.050;2023-05-10T06:29:04;9.93;;;4.23;;
22080;SDS011;11207;59.512;18.050;2023-05-10T06:31:30;10.23;;;5.13;;
22080;SDS011;11207;59.512;18.050;2023-05-10T06:33:55;11.43;;;4.40;;
22080;SDS011;11207;59.512;18.050;2023-05-10T06:36:22;7.47;;;4.97;;
22080;SDS011;11207;59.512;18.050;2023-05-10T06:38:49;7.20;;;4.60;;
22080;SDS011;11207;59.512;18.050;2023-05-10T06:41:16;9.97;;;4.20;;
22080;SDS011;11207;59.512;18.050;2023-05-10T06:43:41;7.03;;;4.30;;
22080;SDS011;11207;59.512;18.050;2023-05-10T06:46:08;8.53;;;4.33;;
22080;SDS011;11207;59.512;18.050;2023-05-10T06:48:34;9.93;;;4.57;;
22080;SDS011;11207;59.512;18.050;2023-05-10T06:50:59;9.30;;;4.53;;
22080;SDS011;11207;59.512;18.050;2023-05-10T06:53:25;7.80;;;4.17;;
22080;SDS011;11207;59.512;18.050;2023-05-10T06:55:51;6.00;;;4.30;;
22080;SDS011;11207;59.512;18.050;2023-05-10T06:58:17;6.57;;;4.13;;
22080;SDS011;11207;59.512;18.050;2023-05-10T07:00:42;5.80;;;4.37;;
22080;SDS011;11207;59.512;18.050;2023-05-10T07:03:10;7.90;;;4.20;;
22080;SDS011;11207;59.512;18.050;2023-05-10T07:05:35;7.90;;;4.53;;
22080;SDS011;11207;59.512;18.050;2023-05-10T07:08:01;6.10;;;4.10;;
22080;SDS011;11207;59.512;18.050;2023-05-10T07:10:27;11.93;;;4.13;;
22080;SDS011;11207;59.512;18.050;2023-05-10T07:12:52;6.80;;;4.13;;
22080;SDS011;11207;59.512;18.050;2023-05-10T07:15:18;7.30;;;4.23;;
22080;SDS011;11207;59.512;18.050;2023-05-10T07:17:44;8.83;;;4.03;;
22080;SDS011;11207;59.512;18.050;2023-05-10T07:20:10;12.67;;;4.23;;
22080;SDS011;11207;59.512;18.050;2023-05-10T07:22:36;8.43;;;4.00;;
22080;SDS011;11207;59.512;18.050;2023-05-10T07:25:02;13.23;;;4.80;;
22080;SDS011;11207;59.512;18.050;2023-05-10T07:27:27;8.10;;;3.30;;
22080;SDS011;11207;59.512;18.050;2023-05-10T07:29:53;11.07;;;3.80;;
22080;SDS011;11207;59.512;18.050;2023-05-10T07:32:19;6.90;;;3.47;;
22080;SDS011;11207;59.512;18.050;2023-05-10T07:34:45;6.67;;;3.83;;
22080;SDS011;11207;59.512;18.050;2023-05-10T07:37:11;8.03;;;3.80;;
22080;SDS011;11207;59.512;18.050;2023-05-10T07:39:36;7.73;;;3.70;;
22080;SDS011;11207;59.512;18.050;2023-05-10T07:42:02;11.07;;;4.50;;
22080;SDS011;11207;59.512;18.050;2023-05-10T07:44:28;8.40;;;4.03;;
22080;SDS011;11207;59.512;18.050;2023-05-10T07:46:54;11.73;;;3.73;;
22080;SDS011;11207;59.512;18.050;2023-05-10T07:49:20;8.77;;;3.60;;
22080;SDS011;11207;59.512;18.050;2023-05-10T07:51:46;7.10;;;3.70;;
22080;SDS011;11207;59.512;18.050;2023-05-10T07:54:11;5.67;;;3.83;;
22080;SDS011;11207;59.512;18.050;2023-05-10T07:56:37;8.93;;;3.97;;
22080;SDS011;11207;59.512;18.050;2023-05-10T07:59:04;8.57;;;3.43;;
22080;SDS011;11207;59.512;18.050;2023-05-10T08:01:31;8.77;;;3.60;;
22080;SDS011;11207;59.512;18.050;2023-05-10T08:03:59;5.87;;;3.57;;
22080;SDS011;11207;59.512;18.050;2023-05-10T08:06:24;10.05;;;3.47;;
22080;SDS011;11207;59.512;18.050;2023-05-10T08:08:52;9.43;;;3.43;;
22080;SDS011;11207;59.512;18.050;2023-05-10T08:11:19;5.70;;;3.55;;
22080;SDS011;11207;59.512;18.050;2023-05-10T08:13:46;5.32;;;3.37;;
22080;SDS011;11207;59.512;18.050;2023-05-10T08:16:13;4.90;;;3.03;;
22080;SDS011;11207;59.512;18.050;2023-05-10T08:18:39;7.60;;;3.30;;
22080;SDS011;11207;59.512;18.050;2023-05-10T08:21:05;6.18;;;3.40;;
22080;SDS011;11207;59.512;18.050;2023-05-10T08:23:31;8.27;;;3.78;;
22080;SDS011;11207;59.512;18.050;2023-05-10T08:25:56;11.12;;;3.65;;
22080;SDS011;11207;59.512;18.050;2023-05-10T08:28:22;4.68;;;2.90;;
22080;SDS011;11207;59.512;18.050;2023-05-10T08:30:49;5.65;;;3.17;;
22080;SDS011;11207;59.512;18.050;2023-05-10T08:33:15;4.20;;;3.35;;
22080;SDS011;11207;59.512;18.050;2023-05-10T08:35:40;4.82;;;3.25;;
22080;SDS011;11207;59.512;18.050;2023-05-10T08:38:06;11.73;;;3.65;;
22080;SDS011;11207;59.512;18.050;2023-05-10T08:40:32;6.10;;;3.00;;
22080;SDS011;11207;59.512;18.050;2023-05-10T08:43:08;9.05;;;3.25;;
22080;SDS011;11207;59.512;18.050;2023-05-10T08:45:38;6.57;;;3.20;;
22080;SDS011;11207;59.512;18.050;2023-05-10T08:48:06;11.18;;;2.78;;
22080;SDS011;11207;59.512;18.050;2023-05-10T08:50:39;8.20;;;3.53;;
22080;SDS011;11207;59.512;18.050;2023-05-10T08:53:10;4.60;;;3.25;;
22080;SDS011;11207;59.512;18.050;2023-05-10T08:55:37;5.95;;;3.20;;
22080;SDS011;11207;59.512;18.050;2023-05-10T08:58:04;3.95;;;2.95;;
22080;SDS011;11207;59.512;18.050;2023-05-10T09:00:30;6.07;;;2.95;;
22080;SDS011;11207;59.512;18.050;2023-05-10T09:02:57;8.30;;;3.10;;
22080;SDS011;11207;59.512;18.050;2023-05-10T09:05:23;5.95;;;3.05;;
22080;SDS011;11207;59.512;18.050;2023-05-10T09:07:49;4.10;;;2.60;;
22080;SDS011;11207;59.512;18.050;2023-05-10T09:10:15;7.35;;;3.58;;
22080;SDS011;11207;59.512;18.050;2023-05-10T09:12:41;5.60;;;2.95;;
22080;SDS011;11207;59.512;18.050;2023-05-10T09:15:09;5.87;;;2.90;;
22080;SDS011;11207;59.512;18.050;2023-05-10T09:17:37;4.57;;;2.90;;
22080;SDS011;11207;59.512;18.050;2023-05-10T09:20:05;5.35;;;2.60;;
22080;SDS011;11207;59.512;18.050;2023-05-10T09:22:32;4.37;;;2.80;;
22080;SDS011;11207;59.512;18.050;2023-05-10T09:25:07;4.28;;;2.78;;
22080;SDS011;11207;59.512;18.050;2023-05-10T09:27:34;5.25;;;3.05;;
22080;SDS011;11207;59.512;18.050;2023-05-10T09:30:01;5.82;;;2.78;;
22080;SDS011;11207;59.512;18.050;2023-05-10T09:35:06;4.65;;;2.42;;
22080;SDS011;11207;59.512;18.050;2023-05-10T09:37:36;6.47;;;3.00;;
22080;SDS011;11207;59.512;18.050;2023-05-10T09:40:08;3.28;;;2.47;;
22080;SDS011;11207;59.512;18.050;2023-05-10T09:42:37;8.80;;;3.00;;
22080;SDS011;11207;59.512;18.050;2023-05-10T09:45:03;7.28;;;2.70;;
22080;SDS011;11207;59.512;18.050;2023-05-10T09:47:36;4.60;;;2.85;;
22080;SDS011;11207;59.512;18.050;2023-05-10T09:50:03;5.05;;;2.87;;
22080;SDS011;11207;59.512;18.050;2023-05-10T09:52:52;5.53;;;3.00;;
22080;SDS011;11207;59.512;18.050;2023-05-10T09:55:18;6.50;;;2.55;;
22080;SDS011;11207;59.512;18.050;2023-05-10T09:57:45;6.55;;;2.95;;
22080;SDS011;11207;59.512;18.050;2023-05-10T10:00:16;5.57;;;2.65;;
22080;SDS011;11207;59.512;18.050;2023-05-10T10:02:53;5.57;;;2.90;;
22080;SDS011;11207;59.512;18.050;2023-05-10T10:05:21;4.32;;;2.30;;
22080;SDS011;11207;59.512;18.050;2023-05-10T10:07:56;5.12;;;2.42;;
22080;SDS011;11207;59.512;18.050;2023-05-10T10:10:24;5.25;;;2.75;;
22080;SDS011;11207;59.512;18.050;2023-05-10T10:12:53;6.87;;;2.78;;
22080;SDS011;11207;59.512;18.050;2023-05-10T10:15:22;5.62;;;3.00;;
22080;SDS011;11207;59.512;18.050;2023-05-10T10:17:49;5.20;;;2.60;;
22080;SDS011;11207;59.512;18.050;2023-05-10T10:20:17;4.32;;;2.90;;
22080;SDS011;11207;59.512;18.050;2023-05-10T10:22:43;3.35;;;2.58;;
22080;SDS011;11207;59.512;18.050;2023-05-10T10:25:10;2.97;;;2.55;;
22080;SDS011;11207;59.512;18.050;2023-05-10T10:35:35;9.23;;;2.60;;
22080;SDS011;11207;59.512;18.050;2023-05-10T10:38:02;5.60;;;2.60;;
22080;SDS011;11207;59.512;18.050;2023-05-10T10:40:28;13.10;;;2.97;;
22080;SDS011;11207;59.512;18.050;2023-05-10T10:42:55;3.97;;;2.60;;
22080;SDS011;11207;59.512;18.050;2023-05-10T10:45:22;6.00;;;2.55;;
22080;SDS011;11207;59.512;18.050;2023-05-10T10:47:53;7.32;;;3.05;;
22080;SDS011;11207;59.512;18.050;2023-05-10T10:50:44;2.97;;;2.60;;
22080;SDS011;11207;59.512;18.050;2023-05-10T10:53:13;3.12;;;2.47;;
22080;SDS011;11207;59.512;18.050;2023-05-10T10:55:47;4.40;;;2.72;;
22080;SDS011;11207;59.512;18.050;2023-05-10T10:58:29;4.47;;;2.42;;
22080;SDS011;11207;59.512;18.050;2023-05-10T11:01:12;6.00;;;2.45;;
22080;SDS011;11207;59.512;18.050;2023-05-10T11:03:55;6.20;;;2.72;;
22080;SDS011;11207;59.512;18.050;2023-05-10T11:06:31;7.65;;;2.90;;
22080;SDS011;11207;59.512;18.050;2023-05-10T11:08:58;5.60;;;2.80;;
22080;SDS011;11207;59.512;18.050;2023-05-10T11:11:24;6.95;;;2.58;;
22080;SDS011;11207;59.512;18.050;2023-05-10T11:13:50;9.30;;;3.20;;
22080;SDS011;11207;59.512;18.050;2023-05-10T11:16:23;4.55;;;2.65;;
22080;SDS011;11207;59.512;18.050;2023-05-10T11:18:53;3.87;;;2.50;;
22080;SDS011;11207;59.512;18.050;2023-05-10T11:21:30;5.97;;;3.08;;
22080;SDS011;11207;59.512;18.050;2023-05-10T11:23:58;8.85;;;2.80;;
22080;SDS011;11207;59.512;18.050;2023-05-10T11:26:25;9.30;;;3.03;;
22080;SDS011;11207;59.512;18.050;2023-05-10T11:28:55;4.95;;;2.70;;
22080;SDS011;11207;59.512;18.050;2023-05-10T11:31:20;6.57;;;2.70;;
22080;SDS011;11207;59.512;18.050;2023-05-10T11:33:50;8.98;;;2.42;;
22080;SDS011;11207;59.512;18.050;2023-05-10T11:36:18;4.65;;;2.55;;
22080;SDS011;11207;59.512;18.050;2023-05-10T11:38:48;3.55;;;2.72;;
22080;SDS011;11207;59.512;18.050;2023-05-10T11:41:14;8.45;;;2.80;;
22080;SDS011;11207;59.512;18.050;2023-05-10T11:43:42;4.65;;;2.87;;
22080;SDS011;11207;59.512;18.050;2023-05-10T11:46:09;5.72;;;2.53;;
22080;SDS011;11207;59.512;18.050;2023-05-10T11:48:39;12.18;;;2.78;;
22080;SDS011;11207;59.512;18.050;2023-05-10T11:51:05;4.32;;;2.55;;
22080;SDS011;11207;59.512;18.050;2023-05-10T11:53:32;12.45;;;3.12;;
22080;SDS011;11207;59.512;18.050;2023-05-10T11:56:08;5.45;;;3.05;;
22080;SDS011;11207;59.512;18.050;2023-05-10T11:58:34;8.68;;;3.05;;
22080;SDS011;11207;59.512;18.050;2023-05-10T12:01:02;5.55;;;2.85;;
22080;SDS011;11207;59.512;18.050;2023-05-10T12:03:28;5.18;;;2.67;;
22080;SDS011;11207;59.512;18.050;2023-05-10T12:05:55;11.40;;;2.85;;
22080;SDS011;11207;59.512;18.050;2023-05-10T12:08:23;5.57;;;2.85;;
22080;SDS011;11207;59.512;18.050;2023-05-10T12:10:50;9.45;;;2.85;;
22080;SDS011;11207;59.512;18.050;2023-05-10T12:13:16;6.75;;;2.85;;
22080;SDS011;11207;59.512;18.050;2023-05-10T12:15:43;7.30;;;2.87;;
22080;SDS011;11207;59.512;18.050;2023-05-10T12:18:09;5.20;;;2.80;;
22080;SDS011;11207;59.512;18.050;2023-05-10T12:20:36;2.53;;;2.33;;
22080;SDS011;11207;59.512;18.050;2023-05-10T12:23:02;5.80;;;3.10;;
22080;SDS011;11207;59.512;18.050;2023-05-10T12:25:32;4.87;;;2.97;;
22080;SDS011;11207;59.512;18.050;2023-05-10T12:28:00;7.80;;;2.90;;
22080;SDS011;11207;59.512;18.050;2023-05-10T12:30:28;7.37;;;2.92;;
22080;SDS011;11207;59.512;18.050;2023-05-10T12:32:59;6.07;;;3.00;;
22080;SDS011;11207;59.512;18.050;2023-05-10T12:35:29;7.82;;;3.25;;
22080;SDS011;11207;59.512;18.050;2023-05-10T12:37:56;6.05;;;3.15;;
22080;SDS011;11207;59.512;18.050;2023-05-10T12:40:21;5.53;;;2.92;;
22080;SDS011;11207;59.512;18.050;2023-05-10T12:42:47;3.80;;;2.75;;
22080;SDS011;11207;59.512;18.050;2023-05-10T12:45:13;10.70;;;3.17;;
22080;SDS011;11207;59.512;18.050;2023-05-10T12:47:39;10.75;;;3.60;;
22080;SDS011;11207;59.512;18.050;2023-05-10T12:50:05;5.43;;;2.80;;
22080;SDS011;11207;59.512;18.050;2023-05-10T12:52:31;12.40;;;2.97;;
22080;SDS011;11207;59.512;18.050;2023-05-10T12:54:57;4.57;;;2.65;;
22080;SDS011;11207;59.512;18.050;2023-05-10T12:57:24;6.45;;;3.28;;
22080;SDS011;11207;59.512;18.050;2023-05-10T12:59:50;9.00;;;3.05;;
22080;SDS011;11207;59.512;18.050;2023-05-10T13:02:16;3.85;;;2.60;;
22080;SDS011;11207;59.512;18.050;2023-05-10T13:04:43;6.45;;;2.75;;
22080;SDS011;11207;59.512;18.050;2023-05-10T13:07:09;7.32;;;2.65;;
22080;SDS011;11207;59.512;18.050;2023-05-10T13:09:35;9.27;;;3.00;;
22080;SDS011;11207;59.512;18.050;2023-05-10T13:12:01;4.65;;;2.55;;
22080;SDS011;11207;59.512;18.050;2023-05-10T13:14:27;3.97;;;3.03;;
22080;SDS011;11207;59.512;18.050;2023-05-10T13:16:53;6.20;;;2.80;;
22080;SDS011;11207;59.512;18.050;2023-05-10T13:19:19;2.90;;;2.47;;
22080;SDS011;11207;59.512;18.050;2023-05-10T13:21:44;5.18;;;2.58;;
22080;SDS011;11207;59.512;18.050;2023-05-10T13:24:10;5.25;;;2.45;;
22080;SDS011;11207;59.512;18.050;2023-05-10T13:26:38;3.97;;;2.60;;
22080;SDS011;11207;59.512;18.050;2023-05-10T13:29:07;5.78;;;2.60;;
22080;SDS011;11207;59.512;18.050;2023-05-10T13:31:33;3.03;;;2.30;;
22080;SDS011;11207;59.512;18.050;2023-05-10T13:33:59;5.47;;;2.50;;
22080;SDS011;11207;59.512;18.050;2023-05-10T13:36:24;3.85;;;2.33;;
22080;SDS011;11207;59.512;18.050;2023-05-10T13:38:50;3.20;;;2.37;;
22080;SDS011;11207;59.512;18.050;2023-05-10T13:41:16;7.47;;;2.47;;
22080;SDS011;11207;59.512;18.050;2023-05-10T13:43:41;6.65;;;2.87;;
22080;SDS011;11207;59.512;18.050;2023-05-10T13:46:07;4.28;;;2.92;;
22080;SDS011;11207;59.512;18.050;2023-05-10T13:48:32;6.87;;;3.12;;
22080;SDS011;11207;59.512;18.050;2023-05-10T13:50:58;5.15;;;2.55;;
22080;SDS011;11207;59.512;18.050;2023-05-10T13:53:24;10.45;;;2.70;;
22080;SDS011;11207;59.512;18.050;2023-05-10T13:55:49;3.95;;;2.40;;
22080;SDS011;11207;59.512;18.050;2023-05-10T13:58:15;4.87;;;2.50;;
22080;SDS011;11207;59.512;18.050;2023-05-10T14:00:41;5.90;;;2.75;;
22080;SDS011;11207;59.512;18.050;2023-05-10T14:03:06;4.70;;;2.40;;
22080;SDS011;11207;59.512;18.050;2023-05-10T14:05:34;3.60;;;2.50;;
22080;SDS011;11207;59.512;18.050;2023-05-10T14:08:00;4.57;;;2.87;;
22080;SDS011;11207;59.512;18.050;2023-05-10T14:10:26;5.93;;;2.50;;
22080;SDS011;11207;59.512;18.050;2023-05-10T14:12:51;3.08;;;2.50;;
22080;SDS011;11207;59.512;18.050;2023-05-10T14:15:17;5.03;;;3.15;;
22080;SDS011;11207;59.512;18.050;2023-05-10T14:17:43;4.50;;;2.50;;
22080;SDS011;11207;59.512;18.050;2023-05-10T14:20:08;5.05;;;2.55;;
22080;SDS011;11207;59.512;18.050;2023-05-10T14:22:34;10.27;;;3.92;;
22080;SDS011;11207;59.512;18.050;2023-05-10T14:25:00;4.15;;;2.85;;
22080;SDS011;11207;59.512;18.050;2023-05-10T14:27:26;7.80;;;3.00;;
22080;SDS011;11207;59.512;18.050;2023-05-10T14:29:51;5.03;;;2.80;;
22080;SDS011;11207;59.512;18.050;2023-05-10T14:32:18;2.97;;;2.67;;
22080;SDS011;11207;59.512;18.050;2023-05-10T14:34:44;4.03;;;2.97;;
22080;SDS011;11207;59.512;18.050;2023-05-10T14:37:10;7.22;;;2.97;;
22080;SDS011;11207;59.512;18.050;2023-05-10T14:39:36;3.83;;;2.60;;
22080;SDS011;11207;59.512;18.050;2023-05-10T14:42:02;5.22;;;2.70;;
22080;SDS011;11207;59.512;18.050;2023-05-10T14:44:28;6.62;;;3.45;;
22080;SDS011;11207;59.512;18.050;2023-05-10T14:46:54;5.20;;;2.80;;
22080;SDS011;11207;59.512;18.050;2023-05-10T14:49:21;5.87;;;2.90;;
22080;SDS011;11207;59.512;18.050;2023-05-10T14:51:47;3.42;;;2.42;;
22080;SDS011;11207;59.512;18.050;2023-05-10T14:54:13;12.13;;;2.80;;